Pagina principale
METAR-TAF:

METAR-TAF

Aeroporti :

Bíldudalur, Islanda

latitudine: 65-38-30N, longitudine: 23-32-45W, altezza: 8 m

Osservazione

Il bollettino è stato emesso 15 ore e 33 minuti fa, alle 11:00 UTC
Vento 11 kt da nord-est
Temperature -4°C
Umidità 58%
Pressione 1016 hPa
Visibilità 10 km o più
Poco nuvoloso ad un'altezza di 3500 ft

METAR: BIBD 011100Z 05011KT 9999 FEW035 M04/M11 Q1016

Ora: 02:33 (02:33 UTC)

Previsione

Il bollettino è stato emesso 16 ore e 19 minuti fa, alle 10:14 UTC
Previsione valida dal 01 alle 11 UTC al 01 alle 17 UTC
Vento 10 kt da nord/nord-est
Visibilità 10 km o più
Poco nuvoloso ad un'altezza di 3500 ft

TAF: BIBD 011014Z 0111/0117 03010KT 9999 FEW035

Osservazioni e previsioni meteorologiche di più di 4000 aeroporti (messaggi METAR e TAF).

Le stazioni disponibili sono rappresentate dai dischi gialli e rossi sulla carta.

Puntare il mouse per vedere il nome della stazione.

Clicca sopra per visualizzare le osservazioni e previsioni meteorologiche.

Per cambiare la mappa : fare clic sui pulsanti verdi con una croce nera per ingrandire, il pulsante verde con un trattino per diminuire, o sulla freccia verde per le mappe adiacenti.


METAR-TAF: